createdAt,value
2023-02-28T00:01:37.426Z,8.09
2023-02-28T00:04:05.823Z,8.08
2023-02-28T00:06:35.517Z,8.09
2023-02-28T00:09:03.809Z,8.11
2023-02-28T00:11:32.222Z,8.10
2023-02-28T00:14:01.243Z,8.14
2023-02-28T00:16:29.591Z,8.14
2023-02-28T00:18:58.346Z,8.13
2023-02-28T00:21:26.619Z,8.14
2023-02-28T00:23:56.167Z,8.15
2023-02-28T00:26:24.472Z,8.15
2023-02-28T00:28:54.804Z,8.16
2023-02-28T00:31:22.955Z,8.18
2023-02-28T00:33:52.884Z,8.18
2023-02-28T00:36:21.094Z,8.18
2023-02-28T00:38:49.264Z,8.20
2023-02-28T00:41:18.935Z,8.21
2023-02-28T00:43:47.152Z,8.20
2023-02-28T00:46:15.373Z,8.22
2023-02-28T00:48:43.627Z,8.23
2023-02-28T00:51:12.006Z,8.24
2023-02-28T00:53:40.231Z,8.26
2023-02-28T00:56:08.977Z,8.27
2023-02-28T00:58:38.593Z,8.25
2023-02-28T01:01:06.979Z,8.26
2023-02-28T01:03:35.138Z,8.28
2023-02-28T01:06:03.366Z,8.31
2023-02-28T01:08:31.524Z,8.30
2023-02-28T01:10:59.776Z,8.31
2023-02-28T01:13:27.866Z,8.31
2023-02-28T01:15:58.716Z,8.31
2023-02-28T01:18:26.975Z,8.31
2023-02-28T01:20:55.484Z,8.31
2023-02-28T01:23:24.719Z,8.29
2023-02-28T01:25:53.194Z,8.31
2023-02-28T01:28:21.318Z,8.30
2023-02-28T01:30:53.410Z,8.29
2023-02-28T01:33:22.920Z,8.31
2023-02-28T01:35:51.151Z,8.30
2023-02-28T01:38:23.474Z,8.31
2023-02-28T01:40:52.316Z,8.31
2023-02-28T01:43:25.285Z,8.32
2023-02-28T01:45:54.782Z,8.32
2023-02-28T01:48:32.696Z,8.32
2023-02-28T01:51:07.719Z,8.32
2023-02-28T01:53:44.808Z,8.32
2023-02-28T01:56:21.620Z,8.34
2023-02-28T01:58:50.238Z,8.34
2023-02-28T02:01:22.674Z,8.34
2023-02-28T02:03:56.619Z,8.35
2023-02-28T02:06:25.461Z,8.37
2023-02-28T02:08:53.858Z,8.35
2023-02-28T02:11:24.302Z,8.32
2023-02-28T02:14:15.161Z,8.33
2023-02-28T02:17:03.132Z,8.30
2023-02-28T02:19:57.349Z,8.32
2023-02-28T02:23:01.040Z,8.29
2023-02-28T02:25:32.577Z,8.30
2023-02-28T02:28:43.914Z,8.33
2023-02-28T02:31:39.143Z,8.29
2023-02-28T02:34:27.778Z,8.31
2023-02-28T02:37:05.046Z,8.31
2023-02-28T02:39:41.721Z,8.27
2023-02-28T02:42:19.985Z,8.31
2023-02-28T02:44:55.033Z,8.29
2023-02-28T02:47:26.894Z,8.31
2023-02-28T02:49:59.593Z,8.33
2023-02-28T02:52:39.232Z,8.33
2023-02-28T02:55:12.043Z,8.34
2023-02-28T02:57:48.073Z,8.34
2023-02-28T03:00:19.089Z,8.36
2023-02-28T03:02:49.867Z,8.34
2023-02-28T03:05:24.101Z,8.31
2023-02-28T03:07:52.216Z,8.30
2023-02-28T03:10:32.848Z,8.26
2023-02-28T03:13:13.825Z,8.29
2023-02-28T03:15:53.361Z,8.26
2023-02-28T03:18:30.238Z,8.27
2023-02-28T03:21:08.798Z,8.26
2023-02-28T03:23:44.592Z,8.26
2023-02-28T03:26:20.454Z,8.25
2023-02-28T03:28:58.021Z,8.24
2023-02-28T03:31:32.655Z,8.25
2023-02-28T03:34:06.365Z,8.26
2023-02-28T03:36:45.121Z,8.25
2023-02-28T03:39:18.323Z,8.25
2023-02-28T03:41:50.793Z,8.22
2023-02-28T03:44:24.197Z,8.26
2023-02-28T03:46:58.696Z,8.26
2023-02-28T03:49:33.526Z,8.28
2023-02-28T03:52:06.208Z,8.27
2023-02-28T03:54:38.689Z,8.26
2023-02-28T03:57:13.075Z,8.27
2023-02-28T03:59:45.716Z,8.28
2023-02-28T04:02:13.951Z,8.30
2023-02-28T04:04:49.665Z,8.29
2023-02-28T04:07:19.657Z,8.30
2023-02-28T04:09:47.961Z,8.30
2023-02-28T04:12:16.153Z,8.31
2023-02-28T04:14:44.432Z,8.31
2023-02-28T04:17:12.767Z,8.30
2023-02-28T04:19:40.957Z,8.29
2023-02-28T04:22:11.228Z,8.27
2023-02-28T04:24:42.454Z,8.27
2023-02-28T04:27:11.567Z,8.27
2023-02-28T04:29:40.003Z,8.25
2023-02-28T04:32:08.375Z,8.28
2023-02-28T04:34:36.787Z,8.29
2023-02-28T04:37:14.181Z,8.29
2023-02-28T04:39:44.649Z,8.28
2023-02-28T04:42:13.653Z,8.28
2023-02-28T04:44:42.386Z,8.29
2023-02-28T04:47:10.770Z,8.25
2023-02-28T04:49:39.214Z,8.24
2023-02-28T04:52:08.708Z,8.25
2023-02-28T04:54:37.031Z,8.26
2023-02-28T04:57:07.040Z,8.28
2023-02-28T04:59:35.319Z,8.26
2023-02-28T05:02:07.788Z,8.25
2023-02-28T05:04:36.923Z,8.20
2023-02-28T05:07:05.729Z,8.13
2023-02-28T05:09:35.072Z,8.05
2023-02-28T05:12:03.507Z,7.98
2023-02-28T05:14:33.037Z,7.93
2023-02-28T05:17:01.311Z,7.87
2023-02-28T05:19:29.675Z,7.83
2023-02-28T05:21:57.864Z,7.80
2023-02-28T05:24:26.129Z,7.79
2023-02-28T05:26:55.996Z,7.81
2023-02-28T05:29:24.466Z,7.79
2023-02-28T05:31:54.228Z,7.79
2023-02-28T05:34:22.516Z,7.79
2023-02-28T05:36:50.672Z,7.76
2023-02-28T05:39:18.950Z,7.76
2023-02-28T05:41:47.165Z,7.75
2023-02-28T05:44:15.339Z,7.76
2023-02-28T05:46:43.492Z,7.76
2023-02-28T05:49:13.042Z,7.78
2023-02-28T05:51:41.207Z,7.78
2023-02-28T05:54:09.807Z,7.75
2023-02-28T05:56:40.183Z,7.74
2023-02-28T05:59:08.452Z,7.77
2023-02-28T06:01:38.836Z,7.76
2023-02-28T06:04:11.018Z,7.77
2023-02-28T06:06:42.126Z,7.77
2023-02-28T06:09:10.299Z,7.77
2023-02-28T06:11:39.877Z,7.77
2023-02-28T06:14:09.241Z,7.79
2023-02-28T06:16:38.182Z,7.78
2023-02-28T06:19:06.921Z,7.76
2023-02-28T06:21:35.099Z,7.78
2023-02-28T06:24:05.539Z,7.76
2023-02-28T06:26:33.714Z,7.74
2023-02-28T06:29:02.574Z,7.75
2023-02-28T06:31:31.238Z,7.75
2023-02-28T06:33:59.781Z,7.77
2023-02-28T06:36:28.002Z,7.76
2023-02-28T06:38:57.227Z,7.78
2023-02-28T06:41:28.897Z,7.80
2023-02-28T06:43:57.352Z,7.81
2023-02-28T06:46:26.118Z,7.81
2023-02-28T06:48:54.271Z,7.81
2023-02-28T06:51:25.392Z,7.80
2023-02-28T06:53:53.660Z,7.78
2023-02-28T06:56:22.466Z,7.78
2023-02-28T06:58:53.785Z,7.79
2023-02-28T07:01:24.098Z,7.79
2023-02-28T07:03:53.424Z,7.79
2023-02-28T07:06:23.712Z,7.80
2023-02-28T07:08:53.131Z,7.81
2023-02-28T07:11:22.394Z,7.80
2023-02-28T07:13:52.169Z,7.80
2023-02-28T07:16:20.781Z,7.80
2023-02-28T07:18:49.301Z,7.78
2023-02-28T07:21:18.007Z,7.76
2023-02-28T07:23:46.215Z,7.74
2023-02-28T07:26:16.501Z,7.74
2023-02-28T07:28:45.379Z,7.72
2023-02-28T07:31:16.125Z,7.73
2023-02-28T07:33:44.957Z,7.74
2023-02-28T07:36:16.402Z,7.76
2023-02-28T07:38:48.343Z,7.72
2023-02-28T07:41:17.602Z,7.66
2023-02-28T07:43:46.530Z,7.57
2023-02-28T07:46:18.356Z,7.48
2023-02-28T07:48:47.186Z,7.41
2023-02-28T07:51:15.492Z,7.36
2023-02-28T07:53:43.715Z,7.29
2023-02-28T07:56:12.607Z,7.25
2023-02-28T07:58:40.957Z,7.23
2023-02-28T08:01:10.488Z,7.23
2023-02-28T08:03:40.933Z,7.24
2023-02-28T08:06:17.065Z,7.22
2023-02-28T08:08:45.560Z,7.22
2023-02-28T08:11:13.698Z,7.24
2023-02-28T08:13:43.529Z,7.27
2023-02-28T08:16:11.942Z,7.33
2023-02-28T08:18:41.679Z,7.35
2023-02-28T08:21:10.215Z,7.37
2023-02-28T08:23:38.673Z,7.40
2023-02-28T08:26:06.954Z,7.47
2023-02-28T08:28:35.149Z,7.53
2023-02-28T08:31:03.364Z,7.60
2023-02-28T08:33:32.517Z,7.63
2023-02-28T08:36:02.078Z,7.68
2023-02-28T08:38:30.339Z,7.67
2023-02-28T08:41:02.408Z,7.68
2023-02-28T08:43:30.670Z,7.71
2023-02-28T08:45:58.877Z,7.69
2023-02-28T08:48:27.492Z,7.74
2023-02-28T08:51:07.200Z,7.78
2023-02-28T08:53:38.494Z,7.81
2023-02-28T08:56:09.259Z,7.83
2023-02-28T08:58:38.033Z,7.83
2023-02-28T09:01:11.457Z,7.88
2023-02-28T09:03:39.912Z,7.92
2023-02-28T09:06:08.312Z,7.92
2023-02-28T09:08:38.271Z,7.97
2023-02-28T09:11:06.918Z,8.00
2023-02-28T09:13:36.462Z,8.03
2023-02-28T09:16:07.657Z,8.06
2023-02-28T09:18:38.349Z,8.04
2023-02-28T09:21:07.290Z,8.02
2023-02-28T09:23:35.611Z,7.99
2023-02-28T09:26:05.497Z,8.10
2023-02-28T09:28:33.648Z,8.18
2023-02-28T09:31:02.357Z,8.27
2023-02-28T09:33:30.654Z,8.40
2023-02-28T09:36:04.843Z,8.43
2023-02-28T09:38:32.987Z,8.41
2023-02-28T09:41:05.850Z,8.38
2023-02-28T09:43:37.984Z,8.38
2023-02-28T09:46:14.633Z,8.39
2023-02-28T09:48:47.928Z,8.40
2023-02-28T09:51:30.878Z,8.44
2023-02-28T09:54:01.810Z,8.57
2023-02-28T09:56:39.914Z,8.78
2023-02-28T09:59:18.265Z,8.92
2023-02-28T10:01:56.311Z,9.15
2023-02-28T10:04:39.497Z,9.31
2023-02-28T10:07:20.902Z,9.47
2023-02-28T10:09:54.397Z,9.58
2023-02-28T10:12:24.699Z,9.61
2023-02-28T10:14:56.520Z,9.63
2023-02-28T10:17:28.416Z,9.59
2023-02-28T10:20:09.099Z,9.54
2023-02-28T10:22:46.619Z,9.53
2023-02-28T10:25:22.262Z,9.54
2023-02-28T10:27:52.657Z,9.59
2023-02-28T10:30:21.098Z,9.54
2023-02-28T10:32:54.681Z,9.55
2023-02-28T10:35:24.223Z,9.64
2023-02-28T10:37:55.891Z,9.71
2023-02-28T10:40:36.527Z,9.78
2023-02-28T10:43:08.263Z,9.85
2023-02-28T10:45:38.286Z,9.83
2023-02-28T10:48:13.546Z,9.89
2023-02-28T10:50:46.713Z,9.92
2023-02-28T10:53:27.744Z,10.04
2023-02-28T10:56:01.946Z,10.11
2023-02-28T10:58:34.096Z,10.12
2023-02-28T11:01:02.573Z,10.20
2023-02-28T11:03:35.770Z,10.33
2023-02-28T11:06:10.085Z,10.36
2023-02-28T11:08:47.784Z,10.11
2023-02-28T11:11:18.009Z,10.04
2023-02-28T11:13:51.084Z,9.99
2023-02-28T11:16:19.827Z,10.02
2023-02-28T11:18:51.930Z,10.07
2023-02-28T11:21:25.005Z,10.09
2023-02-28T11:23:56.706Z,10.08
2023-02-28T11:26:43.633Z,10.09
2023-02-28T11:29:20.166Z,10.02
2023-02-28T11:32:04.926Z,9.96
2023-02-28T11:34:34.829Z,9.92
2023-02-28T11:37:06.027Z,9.89
2023-02-28T11:39:34.906Z,9.74
2023-02-28T11:42:33.046Z,9.46
2023-02-28T11:45:19.014Z,9.22
2023-02-28T11:47:50.938Z,9.02
2023-02-28T11:50:29.672Z,8.92
2023-02-28T11:53:03.166Z,8.89
2023-02-28T11:55:36.487Z,8.92
2023-02-28T11:58:21.940Z,8.91
2023-02-28T12:01:09.536Z,8.89
2023-02-28T12:03:47.207Z,8.99
2023-02-28T12:06:26.052Z,9.14
2023-02-28T12:09:07.449Z,9.19
2023-02-28T12:11:47.348Z,9.22
2023-02-28T12:14:30.622Z,9.23
2023-02-28T12:17:14.811Z,9.27
2023-02-28T12:19:51.733Z,9.28
2023-02-28T12:22:32.087Z,9.29
2023-02-28T12:25:45.983Z,9.22
2023-02-28T12:28:17.010Z,9.22
2023-02-28T12:30:51.991Z,9.10
2023-02-28T12:33:24.989Z,9.03
2023-02-28T12:35:58.103Z,8.91
2023-02-28T12:38:31.107Z,8.83
2023-02-28T12:41:03.633Z,8.77
2023-02-28T12:43:39.743Z,8.76
2023-02-28T12:46:13.044Z,8.73
2023-02-28T12:48:47.183Z,8.72
2023-02-28T12:51:17.813Z,8.77
2023-02-28T12:53:56.983Z,8.88
2023-02-28T12:56:35.831Z,8.90
2023-02-28T12:59:09.862Z,9.12
2023-02-28T13:02:12.409Z,9.23
2023-02-28T13:05:02.290Z,9.12
2023-02-28T13:08:14.711Z,8.96
2023-02-28T13:10:45.436Z,8.86
2023-02-28T13:13:19.591Z,8.82
2023-02-28T13:16:04.555Z,8.67
2023-02-28T13:18:37.376Z,8.57
2023-02-28T13:21:09.561Z,8.52
2023-02-28T13:24:03.102Z,8.50
2023-02-28T13:27:19.051Z,8.45
2023-02-28T13:29:47.216Z,8.44
2023-02-28T13:32:37.667Z,8.40
2023-02-28T13:35:17.457Z,8.39
2023-02-28T13:37:51.384Z,8.36
2023-02-28T13:40:31.779Z,8.31
2023-02-28T13:42:59.880Z,8.29
2023-02-28T13:45:31.156Z,8.24
2023-02-28T13:48:03.914Z,8.24
2023-02-28T13:50:36.099Z,8.22
2023-02-28T13:53:33.308Z,8.24
2023-02-28T13:56:10.251Z,8.23
2023-02-28T13:58:51.273Z,8.26
2023-02-28T14:01:43.070Z,8.25
2023-02-28T14:04:21.957Z,8.32
2023-02-28T14:06:53.082Z,8.38
2023-02-28T14:09:28.368Z,8.38
2023-02-28T14:11:56.844Z,8.39
2023-02-28T14:14:57.783Z,8.33
2023-02-28T14:17:28.219Z,8.28
2023-02-28T14:19:56.894Z,8.31
2023-02-28T14:22:51.412Z,8.36
2023-02-28T14:25:33.393Z,8.35
2023-02-28T14:28:12.655Z,8.36
2023-02-28T14:30:55.520Z,8.34
2023-02-28T14:33:42.730Z,8.38
2023-02-28T14:36:18.321Z,8.45
2023-02-28T14:38:49.500Z,8.43
2023-02-28T14:41:23.870Z,8.40
2023-02-28T14:43:57.908Z,8.33
2023-02-28T14:46:31.324Z,8.31
2023-02-28T14:48:59.918Z,8.30
2023-02-28T14:51:28.824Z,8.28
2023-02-28T14:54:01.135Z,8.26
2023-02-28T14:56:36.341Z,8.26
2023-02-28T14:59:05.538Z,8.28
2023-02-28T15:01:34.730Z,8.22
2023-02-28T15:04:05.932Z,8.23
2023-02-28T15:06:35.376Z,8.20
2023-02-28T15:09:13.025Z,8.17
2023-02-28T15:11:42.943Z,8.16
2023-02-28T15:14:20.190Z,8.13
2023-02-28T15:16:53.464Z,8.13
2023-02-28T15:19:26.550Z,8.11
2023-02-28T15:22:01.420Z,8.11
2023-02-28T15:24:38.613Z,8.12
2023-02-28T15:27:14.937Z,8.11
2023-02-28T15:29:48.700Z,8.10
2023-02-28T15:32:28.156Z,8.09
2023-02-28T15:34:57.651Z,8.08
2023-02-28T15:37:49.106Z,8.11
2023-02-28T15:40:24.291Z,8.06
2023-02-28T15:43:07.315Z,8.01
2023-02-28T15:45:39.633Z,7.98
2023-02-28T15:48:14.490Z,7.99
2023-02-28T15:50:43.640Z,8.01
2023-02-28T15:53:17.354Z,8.02
2023-02-28T15:55:46.671Z,8.00
2023-02-28T15:58:16.457Z,7.94
2023-02-28T16:00:50.597Z,7.91
2023-02-28T16:03:29.734Z,7.94
2023-02-28T16:06:33.044Z,7.86
2023-02-28T16:09:01.769Z,7.88
2023-02-28T16:11:31.950Z,7.90
2023-02-28T16:14:01.693Z,7.93
2023-02-28T16:16:29.934Z,7.88
2023-02-28T16:18:59.756Z,7.89
2023-02-28T16:21:28.730Z,7.85
2023-02-28T16:23:57.077Z,7.85
2023-02-28T16:26:28.428Z,7.84
2023-02-28T16:28:57.317Z,7.87
2023-02-28T16:31:26.912Z,7.87
2023-02-28T16:33:55.709Z,7.85
2023-02-28T16:36:27.028Z,7.86
2023-02-28T16:38:56.376Z,7.87
2023-02-28T16:41:28.581Z,7.88
2023-02-28T16:44:01.389Z,7.81
2023-02-28T16:46:36.020Z,7.77
2023-02-28T16:49:04.903Z,7.79
2023-02-28T16:51:35.754Z,7.79
2023-02-28T16:54:04.221Z,7.79
2023-02-28T16:56:32.791Z,7.77
2023-02-28T16:59:03.476Z,7.77
2023-02-28T17:01:33.703Z,7.74
2023-02-28T17:04:02.152Z,7.75
2023-02-28T17:06:32.215Z,7.77
2023-02-28T17:09:01.480Z,7.75
2023-02-28T17:11:29.944Z,7.75
2023-02-28T17:13:58.377Z,7.73
2023-02-28T17:16:30.507Z,7.74
2023-02-28T17:19:02.048Z,7.71
2023-02-28T17:21:30.248Z,7.72
2023-02-28T17:23:58.679Z,7.67
2023-02-28T17:26:28.994Z,7.68
2023-02-28T17:28:58.756Z,7.69
2023-02-28T17:31:28.272Z,7.68
2023-02-28T17:33:56.807Z,7.68
2023-02-28T17:36:29.027Z,7.69
2023-02-28T17:38:59.581Z,7.69
2023-02-28T17:41:30.904Z,7.68
2023-02-28T17:43:59.220Z,7.66
2023-02-28T17:46:29.802Z,7.67
2023-02-28T17:48:58.205Z,7.64
2023-02-28T17:51:28.242Z,7.62
2023-02-28T17:53:56.423Z,7.61
2023-02-28T17:56:27.354Z,7.60
2023-02-28T17:58:58.081Z,7.61
2023-02-28T18:01:27.011Z,7.62
2023-02-28T18:03:56.632Z,7.62
2023-02-28T18:06:28.746Z,7.63
2023-02-28T18:08:57.101Z,7.61
2023-02-28T18:11:27.164Z,7.60
2023-02-28T18:13:57.005Z,7.58
2023-02-28T18:16:25.271Z,7.58
2023-02-28T18:18:53.444Z,7.60
2023-02-28T18:21:21.689Z,7.60
2023-02-28T18:23:53.326Z,7.59
2023-02-28T18:26:21.817Z,7.62
2023-02-28T18:28:50.079Z,7.58
2023-02-28T18:31:20.851Z,7.60
2023-02-28T18:33:51.687Z,7.60
2023-02-28T18:36:20.939Z,7.60
2023-02-28T18:38:50.644Z,7.62
2023-02-28T18:41:20.860Z,7.60
2023-02-28T18:43:52.207Z,7.56
2023-02-28T18:46:22.522Z,7.57
2023-02-28T18:48:51.141Z,7.56
2023-02-28T18:51:21.050Z,7.58
2023-02-28T18:53:51.113Z,7.58
2023-02-28T18:56:20.936Z,7.58
2023-02-28T18:58:49.284Z,7.61
2023-02-28T19:01:19.363Z,7.60
2023-02-28T19:03:48.168Z,7.60
2023-02-28T19:06:19.812Z,7.58
2023-02-28T19:08:49.348Z,7.58
2023-02-28T19:11:20.255Z,7.58
2023-02-28T19:13:48.609Z,7.55
2023-02-28T19:16:19.209Z,7.56
2023-02-28T19:18:47.708Z,7.58
2023-02-28T19:21:17.980Z,7.59
2023-02-28T19:23:46.491Z,7.56
2023-02-28T19:26:22.040Z,7.57
2023-02-28T19:28:50.321Z,7.57
2023-02-28T19:31:20.687Z,7.58
2023-02-28T19:33:49.198Z,7.59
2023-02-28T19:36:17.437Z,7.59
2023-02-28T19:38:45.884Z,7.57
2023-02-28T19:41:15.746Z,7.55
2023-02-28T19:43:45.551Z,7.52
2023-02-28T19:46:14.465Z,7.51
2023-02-28T19:48:44.902Z,7.47
2023-02-28T19:53:49.248Z,7.48
2023-02-28T19:56:17.737Z,7.48
2023-02-28T19:58:47.273Z,7.47
2023-02-28T20:01:21.585Z,7.46
2023-02-28T20:03:50.597Z,7.47
2023-02-28T20:06:19.054Z,7.42
2023-02-28T20:08:47.299Z,7.45
2023-02-28T20:11:17.318Z,7.43
2023-02-28T20:13:47.458Z,7.44
2023-02-28T20:16:16.891Z,7.41
2023-02-28T20:18:46.170Z,7.45
2023-02-28T20:21:16.712Z,7.43
2023-02-28T20:23:46.659Z,7.44
2023-02-28T20:26:15.261Z,7.43
2023-02-28T20:28:46.064Z,7.46
2023-02-28T20:31:14.959Z,7.46
2023-02-28T20:33:46.596Z,7.45
2023-02-28T20:36:15.946Z,7.45
2023-02-28T20:38:44.609Z,7.45
2023-02-28T20:41:13.606Z,7.46
2023-02-28T20:43:42.223Z,7.45
2023-02-28T20:46:12.319Z,7.48
2023-02-28T20:48:40.834Z,7.47
2023-02-28T20:51:09.256Z,7.48
2023-02-28T20:53:37.928Z,7.46
2023-02-28T20:56:09.021Z,7.48
2023-02-28T20:58:38.912Z,7.49
2023-02-28T21:01:12.985Z,7.49
2023-02-28T21:03:43.343Z,7.51
2023-02-28T21:06:12.031Z,7.51
2023-02-28T21:08:41.514Z,7.52
2023-02-28T21:11:10.230Z,7.51
2023-02-28T21:13:38.923Z,7.54
2023-02-28T21:16:09.301Z,7.54
2023-02-28T21:18:38.531Z,7.54
2023-02-28T21:21:10.953Z,7.53
2023-02-28T21:23:39.636Z,7.55
2023-02-28T21:26:10.110Z,7.55
2023-02-28T21:28:39.931Z,7.55
2023-02-28T21:31:09.978Z,7.56
2023-02-28T21:33:38.138Z,7.55
2023-02-28T21:36:11.196Z,7.56
2023-02-28T21:38:40.355Z,7.58
2023-02-28T21:41:11.184Z,7.59
2023-02-28T21:43:39.792Z,7.58
2023-02-28T21:46:10.601Z,7.57
2023-02-28T21:48:39.519Z,7.56
2023-02-28T21:51:10.826Z,7.55
2023-02-28T21:53:40.088Z,7.53
2023-02-28T21:56:09.905Z,7.57
2023-02-28T21:58:38.211Z,7.57
2023-02-28T22:01:07.781Z,7.56
2023-02-28T22:03:36.748Z,7.54
2023-02-28T22:06:13.998Z,7.54
2023-02-28T22:08:42.705Z,7.53
2023-02-28T22:11:11.938Z,7.52
2023-02-28T22:13:40.651Z,7.49
2023-02-28T22:16:11.890Z,7.44
2023-02-28T22:18:41.038Z,7.41
2023-02-28T22:21:12.109Z,7.41
2023-02-28T22:23:41.452Z,7.43
2023-02-28T22:26:11.685Z,7.42
2023-02-28T22:28:40.167Z,7.41
2023-02-28T22:31:16.200Z,7.42
2023-02-28T22:33:45.037Z,7.45
2023-02-28T22:36:17.721Z,7.45
2023-02-28T22:38:47.421Z,7.42
2023-02-28T22:41:16.132Z,7.42
2023-02-28T22:43:45.129Z,7.43
2023-02-28T22:46:14.762Z,7.45
2023-02-28T22:48:43.001Z,7.45
2023-02-28T22:51:14.923Z,7.39
2023-02-28T22:53:46.534Z,7.43
2023-02-28T22:56:16.230Z,7.43
2023-02-28T22:58:45.732Z,7.41
2023-02-28T23:01:17.117Z,7.42
2023-02-28T23:03:45.668Z,7.42
2023-02-28T23:06:16.297Z,7.42
2023-02-28T23:08:46.462Z,7.43
2023-02-28T23:11:20.196Z,7.43
2023-02-28T23:13:58.497Z,7.46
2023-02-28T23:16:30.223Z,7.46
2023-02-28T23:18:59.532Z,7.45
2023-02-28T23:21:28.823Z,7.46
2023-02-28T23:23:58.444Z,7.47
2023-02-28T23:26:26.545Z,7.47
2023-02-28T23:28:54.779Z,7.47
2023-02-28T23:31:24.024Z,7.46
2023-02-28T23:33:52.474Z,7.47
2023-02-28T23:36:20.917Z,7.50
2023-02-28T23:38:52.029Z,7.50
2023-02-28T23:41:23.611Z,7.52
2023-02-28T23:43:52.824Z,7.51
2023-02-28T23:46:22.630Z,7.52
2023-02-28T23:48:50.813Z,7.52
2023-02-28T23:51:20.849Z,7.50
2023-02-28T23:53:52.627Z,7.52
2023-02-28T23:56:23.523Z,7.52
2023-02-28T23:58:52.953Z,7.53
